sensor_id;sensor_type;location;lat;lon;timestamp;P1;durP1;ratioP1;P2;durP2;ratioP2
80936;SDS011;70395;51.382;7.074;2023-08-17T00:00:00;5.57;;;5.07;;
80936;SDS011;70395;51.382;7.074;2023-08-17T00:02:29;8.90;;;5.80;;
80936;SDS011;70395;51.382;7.074;2023-08-17T00:04:54;9.37;;;6.30;;
80936;SDS011;70395;51.382;7.074;2023-08-17T00:07:20;6.83;;;6.20;;
80936;SDS011;70395;51.382;7.074;2023-08-17T00:09:46;10.97;;;6.47;;
80936;SDS011;70395;51.382;7.074;2023-08-17T00:12:12;8.90;;;8.10;;
80936;SDS011;70395;51.382;7.074;2023-08-17T00:14:38;9.97;;;8.20;;
80936;SDS011;70395;51.382;7.074;2023-08-17T00:17:04;8.87;;;8.07;;
80936;SDS011;70395;51.382;7.074;2023-08-17T00:19:30;9.13;;;8.27;;
80936;SDS011;70395;51.382;7.074;2023-08-17T00:21:56;8.70;;;7.83;;
80936;SDS011;70395;51.382;7.074;2023-08-17T00:24:21;12.90;;;7.10;;
80936;SDS011;70395;51.382;7.074;2023-08-17T00:26:47;7.90;;;7.20;;
80936;SDS011;70395;51.382;7.074;2023-08-17T00:29:13;8.80;;;7.90;;
80936;SDS011;70395;51.382;7.074;2023-08-17T00:31:40;7.70;;;7.10;;
80936;SDS011;70395;51.382;7.074;2023-08-17T00:34:06;9.20;;;6.30;;
80936;SDS011;70395;51.382;7.074;2023-08-17T00:36:32;6.53;;;5.97;;
80936;SDS011;70395;51.382;7.074;2023-08-17T00:38:58;7.47;;;6.73;;
80936;SDS011;70395;51.382;7.074;2023-08-17T00:41:24;7.93;;;7.13;;
80936;SDS011;70395;51.382;7.074;2023-08-17T00:43:50;8.23;;;6.77;;
80936;SDS011;70395;51.382;7.074;2023-08-17T00:46:15;8.63;;;6.60;;
80936;SDS011;70395;51.382;7.074;2023-08-17T00:48:42;7.63;;;6.93;;
80936;SDS011;70395;51.382;7.074;2023-08-17T00:51:08;7.77;;;6.97;;
80936;SDS011;70395;51.382;7.074;2023-08-17T00:53:35;7.70;;;7.00;;
80936;SDS011;70395;51.382;7.074;2023-08-17T00:56:01;7.10;;;6.47;;
80936;SDS011;70395;51.382;7.074;2023-08-17T00:58:27;6.87;;;6.27;;
80936;SDS011;70395;51.382;7.074;2023-08-17T01:00:53;7.40;;;6.17;;
80936;SDS011;70395;51.382;7.074;2023-08-17T01:03:20;7.43;;;6.60;;
80936;SDS011;70395;51.382;7.074;2023-08-17T01:05:48;7.57;;;6.73;;
80936;SDS011;70395;51.382;7.074;2023-08-17T01:08:16;7.93;;;6.90;;
80936;SDS011;70395;51.382;7.074;2023-08-17T01:13:38;7.43;;;5.80;;
80936;SDS011;70395;51.382;7.074;2023-08-17T01:16:42;7.30;;;6.60;;
80936;SDS011;70395;51.382;7.074;2023-08-17T01:19:32;6.90;;;6.30;;
80936;SDS011;70395;51.382;7.074;2023-08-17T01:22:03;6.87;;;6.00;;
80936;SDS011;70395;51.382;7.074;2023-08-17T01:24:33;8.70;;;5.93;;
80936;SDS011;70395;51.382;7.074;2023-08-17T01:26:59;7.50;;;6.53;;
80936;SDS011;70395;51.382;7.074;2023-08-17T01:29:25;7.07;;;5.90;;
80936;SDS011;70395;51.382;7.074;2023-08-17T01:34:57;6.00;;;5.40;;
80936;SDS011;70395;51.382;7.074;2023-08-17T01:37:34;5.90;;;5.40;;
80936;SDS011;70395;51.382;7.074;2023-08-17T01:40:05;6.47;;;5.40;;
80936;SDS011;70395;51.382;7.074;2023-08-17T01:42:33;6.47;;;5.87;;
80936;SDS011;70395;51.382;7.074;2023-08-17T01:44:59;8.13;;;5.47;;
80936;SDS011;70395;51.382;7.074;2023-08-17T01:47:25;6.37;;;5.73;;
80936;SDS011;70395;51.382;7.074;2023-08-17T01:49:51;6.47;;;5.87;;
80936;SDS011;70395;51.382;7.074;2023-08-17T01:52:17;5.00;;;4.60;;
80936;SDS011;70395;51.382;7.074;2023-08-17T01:54:42;5.53;;;4.93;;
80936;SDS011;70395;51.382;7.074;2023-08-17T01:57:08;5.60;;;5.10;;
80936;SDS011;70395;51.382;7.074;2023-08-17T01:59:34;6.10;;;4.80;;
80936;SDS011;70395;51.382;7.074;2023-08-17T02:02:00;6.23;;;4.27;;
80936;SDS011;70395;51.382;7.074;2023-08-17T02:04:25;4.03;;;3.63;;
80936;SDS011;70395;51.382;7.074;2023-08-17T02:06:51;5.40;;;4.13;;
80936;SDS011;70395;51.382;7.074;2023-08-17T02:09:17;5.53;;;4.90;;
80936;SDS011;70395;51.382;7.074;2023-08-17T02:11:43;4.90;;;4.40;;
80936;SDS011;70395;51.382;7.074;2023-08-17T02:14:08;4.77;;;4.37;;
80936;SDS011;70395;51.382;7.074;2023-08-17T02:16:34;6.90;;;5.40;;
80936;SDS011;70395;51.382;7.074;2023-08-17T02:19:00;6.27;;;5.77;;
80936;SDS011;70395;51.382;7.074;2023-08-17T02:21:26;7.37;;;6.53;;
80936;SDS011;70395;51.382;7.074;2023-08-17T02:23:52;6.57;;;5.83;;
80936;SDS011;70395;51.382;7.074;2023-08-17T02:26:17;7.37;;;6.40;;
80936;SDS011;70395;51.382;7.074;2023-08-17T02:28:43;8.47;;;7.67;;
80936;SDS011;70395;51.382;7.074;2023-08-17T02:31:09;8.43;;;7.63;;
80936;SDS011;70395;51.382;7.074;2023-08-17T02:33:35;8.57;;;7.77;;
80936;SDS011;70395;51.382;7.074;2023-08-17T02:36:02;10.07;;;9.17;;
80936;SDS011;70395;51.382;7.074;2023-08-17T02:38:27;10.40;;;9.40;;
80936;SDS011;70395;51.382;7.074;2023-08-17T02:40:53;9.93;;;9.07;;
80936;SDS011;70395;51.382;7.074;2023-08-17T02:43:19;12.17;;;10.97;;
80936;SDS011;70395;51.382;7.074;2023-08-17T02:45:45;11.27;;;9.40;;
80936;SDS011;70395;51.382;7.074;2023-08-17T02:48:10;10.10;;;9.00;;
80936;SDS011;70395;51.382;7.074;2023-08-17T02:50:36;11.70;;;10.60;;
80936;SDS011;70395;51.382;7.074;2023-08-17T02:53:02;10.10;;;9.17;;
80936;SDS011;70395;51.382;7.074;2023-08-17T02:55:28;11.80;;;10.60;;
80936;SDS011;70395;51.382;7.074;2023-08-17T02:57:54;10.23;;;8.70;;
80936;SDS011;70395;51.382;7.074;2023-08-17T03:00:19;10.93;;;10.03;;
80936;SDS011;70395;51.382;7.074;2023-08-17T03:02:45;11.70;;;10.60;;
80936;SDS011;70395;51.382;7.074;2023-08-17T03:05:11;13.20;;;11.23;;
80936;SDS011;70395;51.382;7.074;2023-08-17T03:07:37;11.33;;;10.23;;
80936;SDS011;70395;51.382;7.074;2023-08-17T03:10:02;10.60;;;9.60;;
80936;SDS011;70395;51.382;7.074;2023-08-17T03:12:29;11.00;;;9.90;;
80936;SDS011;70395;51.382;7.074;2023-08-17T03:14:55;12.47;;;9.37;;
80936;SDS011;70395;51.382;7.074;2023-08-17T03:17:20;11.60;;;8.37;;
80936;SDS011;70395;51.382;7.074;2023-08-17T03:19:46;12.57;;;9.80;;
80936;SDS011;70395;51.382;7.074;2023-08-17T03:22:12;10.83;;;8.70;;
80936;SDS011;70395;51.382;7.074;2023-08-17T03:24:37;9.13;;;8.30;;
80936;SDS011;70395;51.382;7.074;2023-08-17T03:27:03;9.67;;;8.67;;
80936;SDS011;70395;51.382;7.074;2023-08-17T03:29:29;8.13;;;7.33;;
80936;SDS011;70395;51.382;7.074;2023-08-17T03:31:55;9.13;;;7.63;;
80936;SDS011;70395;51.382;7.074;2023-08-17T03:34:21;10.83;;;6.97;;
80936;SDS011;70395;51.382;7.074;2023-08-17T03:36:46;8.03;;;7.23;;
80936;SDS011;70395;51.382;7.074;2023-08-17T03:39:12;7.53;;;6.87;;
80936;SDS011;70395;51.382;7.074;2023-08-17T03:41:38;9.87;;;8.43;;
80936;SDS011;70395;51.382;7.074;2023-08-17T03:44:04;7.67;;;6.87;;
80936;SDS011;70395;51.382;7.074;2023-08-17T03:46:31;9.93;;;6.97;;
80936;SDS011;70395;51.382;7.074;2023-08-17T03:48:57;10.30;;;8.30;;
80936;SDS011;70395;51.382;7.074;2023-08-17T03:51:22;8.60;;;6.30;;
80936;SDS011;70395;51.382;7.074;2023-08-17T03:53:48;9.47;;;7.00;;
80936;SDS011;70395;51.382;7.074;2023-08-17T03:56:14;8.60;;;7.80;;
80936;SDS011;70395;51.382;7.074;2023-08-17T03:58:40;8.47;;;7.47;;
80936;SDS011;70395;51.382;7.074;2023-08-17T04:01:07;7.67;;;7.03;;
80936;SDS011;70395;51.382;7.074;2023-08-17T04:03:33;9.33;;;7.83;;
80936;SDS011;70395;51.382;7.074;2023-08-17T04:06:03;11.43;;;8.83;;
80936;SDS011;70395;51.382;7.074;2023-08-17T04:08:31;8.90;;;7.90;;
80936;SDS011;70395;51.382;7.074;2023-08-17T04:10:57;9.87;;;8.87;;
80936;SDS011;70395;51.382;7.074;2023-08-17T04:13:22;9.53;;;8.27;;
80936;SDS011;70395;51.382;7.074;2023-08-17T04:15:48;15.27;;;9.70;;
80936;SDS011;70395;51.382;7.074;2023-08-17T04:18:14;11.13;;;9.90;;
80936;SDS011;70395;51.382;7.074;2023-08-17T04:20:40;11.83;;;10.47;;
80936;SDS011;70395;51.382;7.074;2023-08-17T04:23:05;12.67;;;11.33;;
80936;SDS011;70395;51.382;7.074;2023-08-17T04:25:31;12.00;;;10.77;;
80936;SDS011;70395;51.382;7.074;2023-08-17T04:27:57;12.17;;;10.53;;
80936;SDS011;70395;51.382;7.074;2023-08-17T04:30:23;12.07;;;10.63;;
80936;SDS011;70395;51.382;7.074;2023-08-17T04:32:48;12.43;;;11.23;;
80936;SDS011;70395;51.382;7.074;2023-08-17T04:35:17;10.97;;;9.87;;
80936;SDS011;70395;51.382;7.074;2023-08-17T04:37:44;11.13;;;9.70;;
80936;SDS011;70395;51.382;7.074;2023-08-17T04:40:12;12.10;;;10.07;;
80936;SDS011;70395;51.382;7.074;2023-08-17T04:42:38;12.53;;;11.33;;
80936;SDS011;70395;51.382;7.074;2023-08-17T04:45:05;15.17;;;13.17;;
80936;SDS011;70395;51.382;7.074;2023-08-17T04:47:32;12.70;;;11.50;;
80936;SDS011;70395;51.382;7.074;2023-08-17T04:49:57;15.80;;;11.53;;
80936;SDS011;70395;51.382;7.074;2023-08-17T04:52:23;17.87;;;15.57;;
80936;SDS011;70395;51.382;7.074;2023-08-17T04:54:49;18.47;;;16.57;;
80936;SDS011;70395;51.382;7.074;2023-08-17T04:57:15;21.40;;;16.90;;
80936;SDS011;70395;51.382;7.074;2023-08-17T04:59:40;18.87;;;16.30;;
80936;SDS011;70395;51.382;7.074;2023-08-17T05:02:06;19.53;;;16.53;;
80936;SDS011;70395;51.382;7.074;2023-08-17T05:04:32;20.40;;;18.30;;
80936;SDS011;70395;51.382;7.074;2023-08-17T05:06:58;21.10;;;18.90;;
80936;SDS011;70395;51.382;7.074;2023-08-17T05:09:23;20.37;;;18.20;;
80936;SDS011;70395;51.382;7.074;2023-08-17T05:11:49;21.33;;;19.07;;
80936;SDS011;70395;51.382;7.074;2023-08-17T05:14:15;23.27;;;20.87;;
80936;SDS011;70395;51.382;7.074;2023-08-17T05:16:41;23.30;;;19.73;;
80936;SDS011;70395;51.382;7.074;2023-08-17T05:19:06;23.57;;;20.60;;
80936;SDS011;70395;51.382;7.074;2023-08-17T05:21:34;22.20;;;19.80;;
80936;SDS011;70395;51.382;7.074;2023-08-17T05:24:01;20.87;;;18.67;;
80936;SDS011;70395;51.382;7.074;2023-08-17T05:26:27;23.13;;;20.57;;
80936;SDS011;70395;51.382;7.074;2023-08-17T05:28:52;24.93;;;20.80;;
80936;SDS011;70395;51.382;7.074;2023-08-17T05:31:18;23.70;;;21.00;;
80936;SDS011;70395;51.382;7.074;2023-08-17T05:33:44;24.33;;;21.07;;
80936;SDS011;70395;51.382;7.074;2023-08-17T05:36:10;22.10;;;20.00;;
80936;SDS011;70395;51.382;7.074;2023-08-17T05:38:36;22.77;;;20.47;;
80936;SDS011;70395;51.382;7.074;2023-08-17T05:41:02;22.73;;;20.37;;
80936;SDS011;70395;51.382;7.074;2023-08-17T05:43:27;22.17;;;20.00;;
80936;SDS011;70395;51.382;7.074;2023-08-17T05:45:53;19.97;;;17.97;;
80936;SDS011;70395;51.382;7.074;2023-08-17T05:48:21;21.07;;;18.97;;
80936;SDS011;70395;51.382;7.074;2023-08-17T05:50:48;20.80;;;18.60;;
80936;SDS011;70395;51.382;7.074;2023-08-17T05:53:14;22.63;;;20.30;;
80936;SDS011;70395;51.382;7.074;2023-08-17T05:55:40;21.80;;;19.60;;
80936;SDS011;70395;51.382;7.074;2023-08-17T05:58:05;20.63;;;18.53;;
80936;SDS011;70395;51.382;7.074;2023-08-17T06:00:31;22.07;;;19.80;;
80936;SDS011;70395;51.382;7.074;2023-08-17T06:02:57;20.93;;;18.87;;
80936;SDS011;70395;51.382;7.074;2023-08-17T06:05:28;22.23;;;20.13;;
80936;SDS011;70395;51.382;7.074;2023-08-17T06:07:55;22.33;;;20.17;;
80936;SDS011;70395;51.382;7.074;2023-08-17T06:10:23;26.73;;;20.60;;
80936;SDS011;70395;51.382;7.074;2023-08-17T06:12:53;21.07;;;19.03;;
80936;SDS011;70395;51.382;7.074;2023-08-17T06:15:20;23.67;;;21.40;;
80936;SDS011;70395;51.382;7.074;2023-08-17T06:17:47;24.60;;;21.00;;
80936;SDS011;70395;51.382;7.074;2023-08-17T06:20:15;24.60;;;20.80;;
80936;SDS011;70395;51.382;7.074;2023-08-17T06:22:42;20.50;;;18.47;;
80936;SDS011;70395;51.382;7.074;2023-08-17T06:25:08;21.37;;;19.37;;
80936;SDS011;70395;51.382;7.074;2023-08-17T06:27:34;21.93;;;19.20;;
80936;SDS011;70395;51.382;7.074;2023-08-17T06:30:01;20.63;;;18.57;;
80936;SDS011;70395;51.382;7.074;2023-08-17T06:32:29;23.00;;;19.93;;
80936;SDS011;70395;51.382;7.074;2023-08-17T06:34:55;23.53;;;21.17;;
80936;SDS011;70395;51.382;7.074;2023-08-17T06:37:22;20.73;;;18.73;;
80936;SDS011;70395;51.382;7.074;2023-08-17T06:39:48;21.30;;;19.00;;
80936;SDS011;70395;51.382;7.074;2023-08-17T06:42:13;21.90;;;19.77;;
80936;SDS011;70395;51.382;7.074;2023-08-17T06:44:39;23.50;;;21.10;;
80936;SDS011;70395;51.382;7.074;2023-08-17T06:47:05;24.63;;;19.90;;
80936;SDS011;70395;51.382;7.074;2023-08-17T06:49:31;23.93;;;21.53;;
80936;SDS011;70395;51.382;7.074;2023-08-17T06:51:57;22.47;;;20.17;;
80936;SDS011;70395;51.382;7.074;2023-08-17T06:54:23;24.67;;;22.17;;
80936;SDS011;70395;51.382;7.074;2023-08-17T06:56:49;24.33;;;21.93;;
80936;SDS011;70395;51.382;7.074;2023-08-17T06:59:14;23.10;;;20.73;;
80936;SDS011;70395;51.382;7.074;2023-08-17T07:01:40;25.17;;;22.53;;
80936;SDS011;70395;51.382;7.074;2023-08-17T07:04:06;25.27;;;22.70;;
80936;SDS011;70395;51.382;7.074;2023-08-17T07:06:32;27.90;;;25.00;;
80936;SDS011;70395;51.382;7.074;2023-08-17T07:08:59;24.63;;;22.00;;
80936;SDS011;70395;51.382;7.074;2023-08-17T07:11:25;25.20;;;21.63;;
80936;SDS011;70395;51.382;7.074;2023-08-17T07:13:51;26.37;;;21.93;;
80936;SDS011;70395;51.382;7.074;2023-08-17T07:16:16;23.40;;;21.10;;
80936;SDS011;70395;51.382;7.074;2023-08-17T07:18:42;25.77;;;23.17;;
80936;SDS011;70395;51.382;7.074;2023-08-17T07:21:08;23.30;;;20.87;;
80936;SDS011;70395;51.382;7.074;2023-08-17T07:23:34;27.87;;;24.90;;
80936;SDS011;70395;51.382;7.074;2023-08-17T07:25:59;28.50;;;23.93;;
80936;SDS011;70395;51.382;7.074;2023-08-17T07:28:25;27.03;;;23.80;;
80936;SDS011;70395;51.382;7.074;2023-08-17T07:30:51;24.80;;;22.40;;
80936;SDS011;70395;51.382;7.074;2023-08-17T07:33:17;27.43;;;24.47;;
80936;SDS011;70395;51.382;7.074;2023-08-17T07:35:42;25.17;;;22.47;;
80936;SDS011;70395;51.382;7.074;2023-08-17T07:38:08;27.20;;;23.27;;
80936;SDS011;70395;51.382;7.074;2023-08-17T07:40:34;25.73;;;23.03;;
80936;SDS011;70395;51.382;7.074;2023-08-17T07:43:00;29.97;;;25.27;;
80936;SDS011;70395;51.382;7.074;2023-08-17T07:45:26;31.97;;;24.80;;
80936;SDS011;70395;51.382;7.074;2023-08-17T07:47:52;29.97;;;23.90;;
80936;SDS011;70395;51.382;7.074;2023-08-17T07:50:18;26.53;;;23.73;;
80936;SDS011;70395;51.382;7.074;2023-08-17T07:52:45;28.37;;;24.60;;
80936;SDS011;70395;51.382;7.074;2023-08-17T07:55:10;24.83;;;22.33;;
80936;SDS011;70395;51.382;7.074;2023-08-17T07:57:36;27.90;;;23.87;;
80936;SDS011;70395;51.382;7.074;2023-08-17T08:00:02;27.90;;;21.97;;
80936;SDS011;70395;51.382;7.074;2023-08-17T08:02:29;26.83;;;23.67;;
80936;SDS011;70395;51.382;7.074;2023-08-17T08:04:54;29.90;;;24.57;;
80936;SDS011;70395;51.382;7.074;2023-08-17T08:07:20;33.17;;;25.73;;
80936;SDS011;70395;51.382;7.074;2023-08-17T08:09:46;29.03;;;24.30;;
80936;SDS011;70395;51.382;7.074;2023-08-17T08:12:12;24.07;;;20.50;;
80936;SDS011;70395;51.382;7.074;2023-08-17T08:14:38;20.50;;;18.40;;
80936;SDS011;70395;51.382;7.074;2023-08-17T08:17:03;22.90;;;18.87;;
80936;SDS011;70395;51.382;7.074;2023-08-17T08:19:29;19.47;;;16.50;;
80936;SDS011;70395;51.382;7.074;2023-08-17T08:21:57;19.50;;;16.70;;
80936;SDS011;70395;51.382;7.074;2023-08-17T08:24:23;21.43;;;17.23;;
80936;SDS011;70395;51.382;7.074;2023-08-17T08:26:49;17.80;;;15.80;;
80936;SDS011;70395;51.382;7.074;2023-08-17T08:29:16;28.17;;;21.27;;
80936;SDS011;70395;51.382;7.074;2023-08-17T08:31:41;26.13;;;23.43;;
80936;SDS011;70395;51.382;7.074;2023-08-17T08:34:07;32.20;;;27.80;;
80936;SDS011;70395;51.382;7.074;2023-08-17T08:36:33;33.30;;;29.60;;
80936;SDS011;70395;51.382;7.074;2023-08-17T08:38:59;32.80;;;28.37;;
80936;SDS011;70395;51.382;7.074;2023-08-17T08:41:24;34.40;;;28.00;;
80936;SDS011;70395;51.382;7.074;2023-08-17T08:43:53;33.30;;;29.10;;
80936;SDS011;70395;51.382;7.074;2023-08-17T08:46:19;35.27;;;29.57;;
80936;SDS011;70395;51.382;7.074;2023-08-17T08:48:48;34.87;;;29.77;;
80936;SDS011;70395;51.382;7.074;2023-08-17T08:51:19;32.80;;;28.50;;
80936;SDS011;70395;51.382;7.074;2023-08-17T08:54:02;33.97;;;30.07;;
80936;SDS011;70395;51.382;7.074;2023-08-17T08:56:34;26.50;;;23.23;;
80936;SDS011;70395;51.382;7.074;2023-08-17T08:59:03;27.40;;;24.40;;
80936;SDS011;70395;51.382;7.074;2023-08-17T09:01:33;24.90;;;22.40;;
80936;SDS011;70395;51.382;7.074;2023-08-17T09:04:00;25.93;;;23.13;;
80936;SDS011;70395;51.382;7.074;2023-08-17T09:06:27;27.03;;;23.97;;
80936;SDS011;70395;51.382;7.074;2023-08-17T09:08:56;26.07;;;23.23;;
80936;SDS011;70395;51.382;7.074;2023-08-17T09:11:24;23.03;;;20.47;;
80936;SDS011;70395;51.382;7.074;2023-08-17T09:13:52;30.70;;;19.87;;
80936;SDS011;70395;51.382;7.074;2023-08-17T09:16:19;20.60;;;18.47;;
80936;SDS011;70395;51.382;7.074;2023-08-17T09:18:45;19.30;;;17.23;;
80936;SDS011;70395;51.382;7.074;2023-08-17T09:21:21;20.80;;;18.70;;
80936;SDS011;70395;51.382;7.074;2023-08-17T09:23:55;19.80;;;16.13;;
80936;SDS011;70395;51.382;7.074;2023-08-17T09:26:21;19.90;;;17.80;;
80936;SDS011;70395;51.382;7.074;2023-08-17T09:28:48;18.37;;;15.97;;
80936;SDS011;70395;51.382;7.074;2023-08-17T09:31:22;18.60;;;15.57;;
80936;SDS011;70395;51.382;7.074;2023-08-17T09:33:49;19.57;;;16.97;;
80936;SDS011;70395;51.382;7.074;2023-08-17T09:36:20;22.37;;;17.87;;
80936;SDS011;70395;51.382;7.074;2023-08-17T09:38:48;19.07;;;17.20;;
80936;SDS011;70395;51.382;7.074;2023-08-17T09:41:15;20.40;;;18.30;;
80936;SDS011;70395;51.382;7.074;2023-08-17T09:43:43;19.83;;;17.97;;
80936;SDS011;70395;51.382;7.074;2023-08-17T09:46:09;17.93;;;16.23;;
80936;SDS011;70395;51.382;7.074;2023-08-17T09:48:36;15.90;;;14.10;;
80936;SDS011;70395;51.382;7.074;2023-08-17T09:51:02;19.40;;;17.20;;
80936;SDS011;70395;51.382;7.074;2023-08-17T09:53:27;18.97;;;17.17;;
80936;SDS011;70395;51.382;7.074;2023-08-17T09:55:54;18.30;;;16.33;;
80936;SDS011;70395;51.382;7.074;2023-08-17T09:58:21;18.93;;;17.10;;
80936;SDS011;70395;51.382;7.074;2023-08-17T10:00:47;17.17;;;15.27;;
80936;SDS011;70395;51.382;7.074;2023-08-17T10:03:15;19.33;;;15.60;;
80936;SDS011;70395;51.382;7.074;2023-08-17T10:05:44;20.37;;;15.40;;
80936;SDS011;70395;51.382;7.074;2023-08-17T10:08:23;16.50;;;15.00;;
80936;SDS011;70395;51.382;7.074;2023-08-17T10:10:55;16.00;;;14.40;;
80936;SDS011;70395;51.382;7.074;2023-08-17T10:13:28;16.43;;;14.87;;
80936;SDS011;70395;51.382;7.074;2023-08-17T10:16:03;15.37;;;13.77;;
80936;SDS011;70395;51.382;7.074;2023-08-17T10:21:37;19.03;;;17.13;;
80936;SDS011;70395;51.382;7.074;2023-08-17T10:24:11;18.00;;;16.10;;
80936;SDS011;70395;51.382;7.074;2023-08-17T10:26:38;17.50;;;15.70;;
80936;SDS011;70395;51.382;7.074;2023-08-17T10:29:06;16.87;;;15.20;;
80936;SDS011;70395;51.382;7.074;2023-08-17T10:31:33;17.10;;;15.37;;
80936;SDS011;70395;51.382;7.074;2023-08-17T10:34:00;16.43;;;14.73;;
80936;SDS011;70395;51.382;7.074;2023-08-17T10:36:27;16.50;;;14.80;;
80936;SDS011;70395;51.382;7.074;2023-08-17T10:41:50;19.70;;;17.60;;
80936;SDS011;70395;51.382;7.074;2023-08-17T10:44:17;20.93;;;18.97;;
80936;SDS011;70395;51.382;7.074;2023-08-17T10:47:19;19.23;;;17.43;;
80936;SDS011;70395;51.382;7.074;2023-08-17T10:49:47;17.93;;;16.07;;
80936;SDS011;70395;51.382;7.074;2023-08-17T10:52:47;20.37;;;18.30;;
80936;SDS011;70395;51.382;7.074;2023-08-17T10:55:15;18.07;;;16.30;;
80936;SDS011;70395;51.382;7.074;2023-08-17T10:57:43;16.10;;;13.93;;
80936;SDS011;70395;51.382;7.074;2023-08-17T11:00:13;14.23;;;12.83;;
80936;SDS011;70395;51.382;7.074;2023-08-17T11:05:36;13.87;;;12.47;;
80936;SDS011;70395;51.382;7.074;2023-08-17T11:08:05;13.20;;;11.27;;
80936;SDS011;70395;51.382;7.074;2023-08-17T11:10:35;12.60;;;11.50;;
80936;SDS011;70395;51.382;7.074;2023-08-17T11:13:03;13.93;;;12.37;;
80936;SDS011;70395;51.382;7.074;2023-08-17T11:15:39;12.37;;;11.17;;
80936;SDS011;70395;51.382;7.074;2023-08-17T11:18:09;12.93;;;11.47;;
80936;SDS011;70395;51.382;7.074;2023-08-17T11:20:38;11.83;;;10.40;;
80936;SDS011;70395;51.382;7.074;2023-08-17T11:23:06;14.70;;;13.30;;
80936;SDS011;70395;51.382;7.074;2023-08-17T11:25:34;14.37;;;12.63;;
80936;SDS011;70395;51.382;7.074;2023-08-17T11:28:03;12.33;;;10.93;;
80936;SDS011;70395;51.382;7.074;2023-08-17T11:30:32;12.70;;;11.60;;
80936;SDS011;70395;51.382;7.074;2023-08-17T11:33:00;12.50;;;11.30;;
80936;SDS011;70395;51.382;7.074;2023-08-17T11:35:26;13.57;;;12.13;;
80936;SDS011;70395;51.382;7.074;2023-08-17T11:37:52;11.67;;;10.57;;
80936;SDS011;70395;51.382;7.074;2023-08-17T11:40:18;10.60;;;9.63;;
80936;SDS011;70395;51.382;7.074;2023-08-17T11:42:44;10.23;;;9.37;;
80936;SDS011;70395;51.382;7.074;2023-08-17T11:45:11;9.63;;;8.73;;
80936;SDS011;70395;51.382;7.074;2023-08-17T11:47:41;11.27;;;10.13;;
80936;SDS011;70395;51.382;7.074;2023-08-17T11:50:09;10.90;;;9.90;;
80936;SDS011;70395;51.382;7.074;2023-08-17T11:52:37;12.83;;;11.63;;
80936;SDS011;70395;51.382;7.074;2023-08-17T11:55:04;12.37;;;11.07;;
80936;SDS011;70395;51.382;7.074;2023-08-17T11:57:33;11.70;;;10.50;;
80936;SDS011;70395;51.382;7.074;2023-08-17T12:00:00;10.40;;;9.40;;
80936;SDS011;70395;51.382;7.074;2023-08-17T12:02:28;10.47;;;9.53;;
80936;SDS011;70395;51.382;7.074;2023-08-17T12:04:56;10.67;;;9.67;;
80936;SDS011;70395;51.382;7.074;2023-08-17T12:07:25;10.13;;;9.17;;
80936;SDS011;70395;51.382;7.074;2023-08-17T12:09:52;9.93;;;8.93;;
80936;SDS011;70395;51.382;7.074;2023-08-17T12:12:19;9.20;;;8.40;;
80936;SDS011;70395;51.382;7.074;2023-08-17T12:14:50;10.23;;;9.20;;
80936;SDS011;70395;51.382;7.074;2023-08-17T12:19:43;10.67;;;9.63;;
80936;SDS011;70395;51.382;7.074;2023-08-17T12:22:13;8.27;;;7.47;;
80936;SDS011;70395;51.382;7.074;2023-08-17T12:24:39;8.73;;;7.83;;
80936;SDS011;70395;51.382;7.074;2023-08-17T12:27:05;8.13;;;7.43;;
80936;SDS011;70395;51.382;7.074;2023-08-17T12:29:32;9.70;;;7.70;;
80936;SDS011;70395;51.382;7.074;2023-08-17T12:31:58;8.80;;;7.63;;
80936;SDS011;70395;51.382;7.074;2023-08-17T12:34:25;8.67;;;7.73;;
80936;SDS011;70395;51.382;7.074;2023-08-17T12:36:51;8.00;;;7.10;;
80936;SDS011;70395;51.382;7.074;2023-08-17T12:39:17;7.60;;;7.00;;
80936;SDS011;70395;51.382;7.074;2023-08-17T12:41:43;6.70;;;6.20;;
80936;SDS011;70395;51.382;7.074;2023-08-17T12:44:09;7.10;;;6.50;;
80936;SDS011;70395;51.382;7.074;2023-08-17T12:46:38;7.80;;;7.00;;
80936;SDS011;70395;51.382;7.074;2023-08-17T12:49:05;7.70;;;6.93;;
80936;SDS011;70395;51.382;7.074;2023-08-17T12:51:31;7.87;;;7.17;;
80936;SDS011;70395;51.382;7.074;2023-08-17T12:53:57;7.70;;;6.90;;
80936;SDS011;70395;51.382;7.074;2023-08-17T12:56:23;7.07;;;6.47;;
80936;SDS011;70395;51.382;7.074;2023-08-17T12:58:48;7.80;;;7.13;;
80936;SDS011;70395;51.382;7.074;2023-08-17T13:01:14;10.63;;;8.57;;
80936;SDS011;70395;51.382;7.074;2023-08-17T13:03:40;8.87;;;8.07;;
80936;SDS011;70395;51.382;7.074;2023-08-17T13:06:07;8.20;;;7.50;;
80936;SDS011;70395;51.382;7.074;2023-08-17T13:08:32;11.20;;;8.90;;
80936;SDS011;70395;51.382;7.074;2023-08-17T13:10:59;8.53;;;7.73;;
80936;SDS011;70395;51.382;7.074;2023-08-17T13:13:25;11.43;;;9.23;;
80936;SDS011;70395;51.382;7.074;2023-08-17T13:15:51;20.33;;;16.90;;
80936;SDS011;70395;51.382;7.074;2023-08-17T13:18:17;20.20;;;18.10;;
80936;SDS011;70395;51.382;7.074;2023-08-17T13:20:43;22.00;;;19.30;;
80936;SDS011;70395;51.382;7.074;2023-08-17T13:23:09;22.60;;;20.17;;
80936;SDS011;70395;51.382;7.074;2023-08-17T13:25:36;22.50;;;20.20;;
80936;SDS011;70395;51.382;7.074;2023-08-17T13:28:02;23.53;;;20.60;;
80936;SDS011;70395;51.382;7.074;2023-08-17T13:30:29;24.40;;;21.43;;
80936;SDS011;70395;51.382;7.074;2023-08-17T13:32:55;24.60;;;21.00;;
80936;SDS011;70395;51.382;7.074;2023-08-17T13:35:21;25.03;;;19.70;;
80936;SDS011;70395;51.382;7.074;2023-08-17T13:37:53;23.70;;;20.60;;
80936;SDS011;70395;51.382;7.074;2023-08-17T13:40:19;25.30;;;21.20;;
80936;SDS011;70395;51.382;7.074;2023-08-17T13:42:45;23.20;;;20.70;;
80936;SDS011;70395;51.382;7.074;2023-08-17T13:45:11;22.97;;;20.43;;
80936;SDS011;70395;51.382;7.074;2023-08-17T13:47:37;22.20;;;19.80;;
80936;SDS011;70395;51.382;7.074;2023-08-17T13:50:03;23.20;;;20.73;;
80936;SDS011;70395;51.382;7.074;2023-08-17T13:52:29;21.43;;;19.20;;
80936;SDS011;70395;51.382;7.074;2023-08-17T13:54:55;20.17;;;17.97;;
80936;SDS011;70395;51.382;7.074;2023-08-17T13:57:21;27.63;;;19.90;;
80936;SDS011;70395;51.382;7.074;2023-08-17T13:59:47;22.10;;;19.70;;
80936;SDS011;70395;51.382;7.074;2023-08-17T14:02:12;21.33;;;19.23;;
80936;SDS011;70395;51.382;7.074;2023-08-17T14:04:38;23.10;;;19.80;;
80936;SDS011;70395;51.382;7.074;2023-08-17T14:07:04;20.60;;;18.40;;
80936;SDS011;70395;51.382;7.074;2023-08-17T14:09:30;20.80;;;17.70;;
80936;SDS011;70395;51.382;7.074;2023-08-17T14:11:56;21.27;;;19.07;;
80936;SDS011;70395;51.382;7.074;2023-08-17T14:14:21;20.37;;;18.27;;
80936;SDS011;70395;51.382;7.074;2023-08-17T14:16:47;20.03;;;18.07;;
80936;SDS011;70395;51.382;7.074;2023-08-17T14:19:13;22.23;;;17.70;;
80936;SDS011;70395;51.382;7.074;2023-08-17T14:21:39;19.97;;;17.83;;
80936;SDS011;70395;51.382;7.074;2023-08-17T14:24:04;19.90;;;17.40;;
80936;SDS011;70395;51.382;7.074;2023-08-17T14:26:33;20.40;;;18.07;;
80936;SDS011;70395;51.382;7.074;2023-08-17T14:28:59;21.97;;;19.77;;
80936;SDS011;70395;51.382;7.074;2023-08-17T14:31:25;20.37;;;18.37;;
80936;SDS011;70395;51.382;7.074;2023-08-17T14:33:50;20.10;;;17.90;;
80936;SDS011;70395;51.382;7.074;2023-08-17T14:36:16;21.43;;;19.33;;
80936;SDS011;70395;51.382;7.074;2023-08-17T14:38:42;19.30;;;17.30;;
80936;SDS011;70395;51.382;7.074;2023-08-17T14:41:08;19.20;;;17.30;;
80936;SDS011;70395;51.382;7.074;2023-08-17T14:43:34;18.53;;;16.50;;
80936;SDS011;70395;51.382;7.074;2023-08-17T14:46:00;16.87;;;15.27;;